createdAt,value
2016-09-29T00:00:28.256Z,0
2016-09-29T00:01:28.958Z,0
2016-09-29T00:02:29.735Z,0
2016-09-29T00:03:30.430Z,0
2016-09-29T00:04:31.128Z,0
2016-09-29T00:05:31.815Z,0
2016-09-29T00:06:32.509Z,0
2016-09-29T00:07:33.217Z,0
2016-09-29T00:08:33.921Z,0
2016-09-29T00:09:34.642Z,0
2016-09-29T00:10:35.335Z,0
2016-09-29T00:11:36.040Z,0
2016-09-29T00:12:36.755Z,0
2016-09-29T00:13:37.448Z,0
2016-09-29T00:14:38.165Z,0
2016-09-29T00:15:38.878Z,0
2016-09-29T00:16:39.573Z,0
2016-09-29T00:17:40.368Z,0
2016-09-29T00:18:41.061Z,0
2016-09-29T00:19:41.767Z,0
2016-09-29T00:20:42.468Z,0
2016-09-29T00:21:43.178Z,0
2016-09-29T00:22:43.876Z,0
2016-09-29T00:23:44.590Z,0
2016-09-29T00:24:45.367Z,0
2016-09-29T00:25:46.113Z,0
2016-09-29T00:26:46.816Z,0
2016-09-29T00:27:47.518Z,0
2016-09-29T00:28:48.301Z,0
2016-09-29T00:29:49.018Z,0
2016-09-29T00:30:49.703Z,0
2016-09-29T00:31:50.391Z,0
2016-09-29T00:32:51.087Z,0
2016-09-29T00:33:51.771Z,0
2016-09-29T00:34:52.477Z,0
2016-09-29T00:35:53.169Z,0
2016-09-29T00:36:53.856Z,0
2016-09-29T00:37:54.567Z,0
2016-09-29T00:38:55.268Z,0
2016-09-29T00:39:55.961Z,0
2016-09-29T00:40:56.659Z,0
2016-09-29T00:41:57.347Z,0
2016-09-29T00:42:58.076Z,0
2016-09-29T00:43:59.042Z,0
2016-09-29T00:44:59.746Z,0
2016-09-29T00:46:00.554Z,0
2016-09-29T00:47:01.250Z,0
2016-09-29T00:48:01.948Z,0
2016-09-29T00:49:02.649Z,0
2016-09-29T00:50:03.399Z,0
2016-09-29T00:51:04.102Z,0
2016-09-29T00:52:04.796Z,0
2016-09-29T00:53:05.484Z,0
2016-09-29T00:54:06.207Z,0
2016-09-29T00:55:06.896Z,0
2016-09-29T00:56:07.591Z,0
2016-09-29T00:57:08.387Z,0
2016-09-29T00:58:09.144Z,0
2016-09-29T00:59:09.930Z,0
2016-09-29T01:00:10.632Z,0
2016-09-29T01:01:11.310Z,0
2016-09-29T01:02:12.190Z,0
2016-09-29T01:03:12.914Z,0
2016-09-29T01:04:13.767Z,0
2016-09-29T01:05:14.621Z,0
2016-09-29T01:06:15.395Z,0
2016-09-29T01:07:17.789Z,0
2016-09-29T01:08:18.571Z,0
2016-09-29T01:09:19.326Z,0
2016-09-29T01:10:20.076Z,0
2016-09-29T01:11:20.772Z,0
2016-09-29T01:12:21.484Z,0
2016-09-29T01:13:22.175Z,0
2016-09-29T01:14:22.864Z,0
2016-09-29T01:15:23.568Z,0
2016-09-29T01:16:24.278Z,0
2016-09-29T01:17:24.974Z,0
2016-09-29T01:18:25.682Z,0
2016-09-29T01:19:26.380Z,0
2016-09-29T01:20:27.081Z,0
2016-09-29T01:21:27.797Z,0
2016-09-29T01:22:28.508Z,0
2016-09-29T01:23:29.245Z,0
2016-09-29T01:24:29.941Z,0
2016-09-29T01:25:30.632Z,0
2016-09-29T01:26:31.317Z,0
2016-09-29T01:27:32.026Z,0
2016-09-29T01:28:32.710Z,0
2016-09-29T01:29:33.401Z,0
2016-09-29T01:30:34.094Z,0
2016-09-29T01:31:34.781Z,0
2016-09-29T01:32:35.500Z,0
2016-09-29T01:33:36.213Z,0
2016-09-29T01:34:36.898Z,0
2016-09-29T01:35:37.585Z,0
2016-09-29T01:36:38.284Z,0
2016-09-29T01:37:38.975Z,0
2016-09-29T01:38:39.677Z,0
2016-09-29T01:39:40.363Z,0
2016-09-29T01:40:41.092Z,0
2016-09-29T01:41:41.807Z,0
2016-09-29T01:42:42.506Z,0
2016-09-29T01:43:43.209Z,0
2016-09-29T01:44:43.908Z,0
2016-09-29T01:45:44.612Z,0
2016-09-29T01:46:45.295Z,0
2016-09-29T01:47:45.987Z,0
2016-09-29T01:48:46.674Z,0
2016-09-29T01:49:47.356Z,0
2016-09-29T01:50:48.051Z,0
2016-09-29T01:51:48.740Z,0
2016-09-29T01:52:49.434Z,0
2016-09-29T01:53:50.139Z,0
2016-09-29T01:54:50.867Z,0
2016-09-29T01:55:51.545Z,0
2016-09-29T01:56:52.280Z,0
2016-09-29T01:57:52.978Z,0
2016-09-29T01:58:53.661Z,0
2016-09-29T01:59:54.388Z,0
2016-09-29T02:00:55.056Z,0
2016-09-29T02:01:55.745Z,0
2016-09-29T02:02:56.428Z,0
2016-09-29T02:03:57.125Z,0
2016-09-29T02:04:57.841Z,0
2016-09-29T02:05:58.530Z,0
2016-09-29T02:06:59.257Z,0
2016-09-29T02:08:00.021Z,0
2016-09-29T02:09:00.733Z,0
2016-09-29T02:10:01.409Z,0
2016-09-29T02:11:02.128Z,0
2016-09-29T02:12:02.835Z,0
2016-09-29T02:13:03.529Z,0
2016-09-29T02:14:04.215Z,0
2016-09-29T02:15:04.904Z,0
2016-09-29T02:16:05.595Z,0
2016-09-29T02:17:06.283Z,0
2016-09-29T02:18:07.004Z,0
2016-09-29T02:19:07.692Z,0
2016-09-29T02:20:08.385Z,0
2016-09-29T02:21:09.074Z,0
2016-09-29T02:22:09.793Z,0
2016-09-29T02:23:10.486Z,0
2016-09-29T02:24:11.176Z,0
2016-09-29T02:25:11.871Z,0
2016-09-29T02:26:12.561Z,0
2016-09-29T02:27:13.255Z,0
2016-09-29T02:28:13.939Z,0
2016-09-29T02:29:14.643Z,0
2016-09-29T02:30:15.335Z,0
2016-09-29T02:31:16.024Z,0
2016-09-29T02:32:16.721Z,0
2016-09-29T02:33:17.407Z,0
2016-09-29T02:34:18.099Z,0
2016-09-29T02:35:18.814Z,0
2016-09-29T02:36:19.514Z,0
2016-09-29T02:37:20.194Z,0
2016-09-29T02:38:20.903Z,0
2016-09-29T02:39:21.591Z,0
2016-09-29T02:40:22.307Z,0
2016-09-29T02:41:22.987Z,0
2016-09-29T02:42:23.715Z,0
2016-09-29T02:43:24.424Z,0
2016-09-29T02:44:25.101Z,0
2016-09-29T02:45:25.780Z,0
2016-09-29T02:46:26.492Z,0
2016-09-29T02:47:27.179Z,0
2016-09-29T02:48:27.881Z,0
2016-09-29T02:49:28.566Z,0
2016-09-29T02:50:29.285Z,0
2016-09-29T02:51:29.999Z,0
2016-09-29T02:52:30.696Z,0
2016-09-29T02:53:31.403Z,0
2016-09-29T02:54:32.135Z,0
2016-09-29T02:55:32.828Z,0
2016-09-29T02:56:33.527Z,0
2016-09-29T02:57:34.211Z,0
2016-09-29T02:58:34.917Z,0
2016-09-29T02:59:35.604Z,0
2016-09-29T03:00:36.314Z,0
2016-09-29T03:01:37.025Z,0
2016-09-29T03:02:37.725Z,0
2016-09-29T03:03:38.410Z,0
2016-09-29T03:04:39.102Z,0
2016-09-29T03:05:39.809Z,0
2016-09-29T03:06:40.517Z,0
2016-09-29T03:07:41.205Z,0
2016-09-29T03:08:41.899Z,0
2016-09-29T03:09:42.582Z,0
2016-09-29T03:10:43.280Z,0
2016-09-29T03:11:43.976Z,0
2016-09-29T03:12:44.656Z,0
2016-09-29T03:13:45.355Z,0
2016-09-29T03:14:46.079Z,0
2016-09-29T03:15:46.776Z,0
2016-09-29T03:16:47.567Z,0
2016-09-29T03:17:48.263Z,0
2016-09-29T03:18:48.945Z,0
2016-09-29T03:19:49.643Z,0
2016-09-29T03:20:50.355Z,0
2016-09-29T03:21:51.132Z,0
2016-09-29T03:22:52.143Z,0
2016-09-29T03:23:53.016Z,0
2016-09-29T03:24:54.078Z,0
2016-09-29T03:25:54.773Z,0
2016-09-29T03:26:55.482Z,0
2016-09-29T03:27:56.176Z,0
2016-09-29T03:28:56.876Z,0
2016-09-29T03:29:57.640Z,0
2016-09-29T03:30:58.344Z,0
2016-09-29T03:31:59.115Z,0
2016-09-29T03:32:59.834Z,0
2016-09-29T03:34:00.530Z,0
2016-09-29T03:35:01.238Z,0
2016-09-29T03:36:01.935Z,0
2016-09-29T03:37:02.629Z,0
2016-09-29T03:38:03.318Z,0
2016-09-29T03:39:04.010Z,0
2016-09-29T03:40:04.720Z,0
2016-09-29T03:41:05.409Z,0
2016-09-29T03:42:06.105Z,0
2016-09-29T03:43:06.804Z,0
2016-09-29T03:44:07.531Z,0
2016-09-29T03:45:08.226Z,0
2016-09-29T03:46:08.946Z,0
2016-09-29T03:47:09.634Z,0
2016-09-29T03:48:10.337Z,0
2016-09-29T03:49:11.034Z,0
2016-09-29T03:50:11.744Z,0
2016-09-29T03:51:12.441Z,0
2016-09-29T03:52:13.161Z,0
2016-09-29T03:53:13.860Z,0
2016-09-29T03:54:14.546Z,0
2016-09-29T03:55:15.260Z,0
2016-09-29T03:56:15.954Z,0
2016-09-29T03:57:16.646Z,0
2016-09-29T03:58:17.350Z,0
2016-09-29T03:59:18.051Z,0
2016-09-29T04:00:18.736Z,0
2016-09-29T04:01:19.433Z,0
2016-09-29T04:02:20.129Z,0
2016-09-29T04:03:20.819Z,0
2016-09-29T04:04:21.513Z,0
2016-09-29T04:05:22.233Z,0
2016-09-29T04:06:22.910Z,0
2016-09-29T04:07:23.595Z,0
2016-09-29T04:08:24.288Z,0
2016-09-29T04:09:24.986Z,0
2016-09-29T04:10:25.674Z,0
2016-09-29T04:11:26.379Z,0
2016-09-29T04:12:27.082Z,0
2016-09-29T04:13:27.774Z,0
2016-09-29T04:14:28.475Z,0
2016-09-29T04:15:29.165Z,0
2016-09-29T04:16:29.843Z,0
2016-09-29T04:17:30.552Z,0
2016-09-29T04:18:31.244Z,0
2016-09-29T04:19:31.944Z,0
2016-09-29T04:20:32.635Z,0
2016-09-29T04:21:33.340Z,0
2016-09-29T04:22:34.029Z,0
2016-09-29T04:23:34.711Z,0
2016-09-29T04:24:35.404Z,0
2016-09-29T04:25:36.106Z,0
2016-09-29T04:26:36.801Z,0
2016-09-29T04:27:37.490Z,0
2016-09-29T04:28:38.174Z,0
2016-09-29T04:29:38.900Z,0
2016-09-29T04:30:39.598Z,0
2016-09-29T04:31:40.295Z,0
2016-09-29T04:32:40.985Z,0
2016-09-29T04:33:41.682Z,0
2016-09-29T04:34:42.384Z,0
2016-09-29T04:35:43.076Z,0
2016-09-29T04:36:43.755Z,0
2016-09-29T04:37:44.446Z,0
2016-09-29T04:38:45.145Z,0
2016-09-29T04:39:45.842Z,0
2016-09-29T04:40:46.548Z,0
2016-09-29T04:41:47.244Z,0
2016-09-29T04:42:47.935Z,0
2016-09-29T04:43:48.630Z,0
2016-09-29T04:44:49.326Z,0
2016-09-29T04:45:50.041Z,0
2016-09-29T04:46:50.735Z,0
2016-09-29T04:47:51.430Z,0
2016-09-29T04:48:52.117Z,0
2016-09-29T04:49:52.815Z,0
2016-09-29T04:50:53.507Z,0
2016-09-29T04:51:54.227Z,0
2016-09-29T04:52:54.918Z,4
2016-09-29T04:53:55.675Z,4
2016-09-29T04:54:56.381Z,4
2016-09-29T04:55:57.079Z,0
2016-09-29T04:56:57.794Z,4
2016-09-29T04:57:58.495Z,4
2016-09-29T04:58:59.187Z,12
2016-09-29T04:59:59.875Z,8
2016-09-29T05:01:00.583Z,16
2016-09-29T05:02:01.267Z,20
2016-09-29T05:03:01.959Z,24
2016-09-29T05:04:02.665Z,24
2016-09-29T05:05:03.376Z,32
2016-09-29T05:06:04.086Z,32
2016-09-29T05:07:04.774Z,36
2016-09-29T05:08:05.455Z,36
2016-09-29T05:09:06.688Z,40
2016-09-29T05:10:07.387Z,40
2016-09-29T05:11:08.086Z,40
2016-09-29T05:12:08.781Z,40
2016-09-29T05:13:09.478Z,44
2016-09-29T05:14:10.169Z,44
2016-09-29T05:15:10.849Z,44
2016-09-29T05:16:11.568Z,44
2016-09-29T05:17:12.272Z,48
2016-09-29T05:18:12.976Z,52
2016-09-29T05:19:13.664Z,48
2016-09-29T05:20:14.363Z,52
2016-09-29T05:21:15.503Z,56
2016-09-29T05:22:16.304Z,52
2016-09-29T05:23:16.988Z,48
2016-09-29T05:24:17.697Z,44
2016-09-29T05:25:18.404Z,56
2016-09-29T05:26:20.881Z,68
2016-09-29T05:27:23.239Z,64
2016-09-29T05:28:24.205Z,84
2016-09-29T05:29:25.522Z,92
2016-09-29T05:30:27.498Z,84
2016-09-29T05:31:29.335Z,96
2016-09-29T05:32:30.024Z,112
2016-09-29T05:33:30.726Z,108
2016-09-29T05:34:31.776Z,104
2016-09-29T05:35:32.818Z,132
2016-09-29T05:36:33.549Z,164
2016-09-29T05:37:34.239Z,212
2016-09-29T05:38:34.948Z,216
2016-09-29T05:39:35.662Z,224
2016-09-29T05:40:36.368Z,216
2016-09-29T05:41:37.079Z,232
2016-09-29T05:42:37.794Z,272
2016-09-29T05:43:38.490Z,364
2016-09-29T05:44:39.193Z,428
2016-09-29T05:45:39.895Z,440
2016-09-29T05:46:40.606Z,536
2016-09-29T05:47:41.349Z,636
2016-09-29T05:48:42.248Z,660
2016-09-29T05:49:42.948Z,520
2016-09-29T05:50:43.675Z,464
2016-09-29T05:51:44.585Z,448
2016-09-29T05:52:45.629Z,480
2016-09-29T05:53:47.482Z,540
2016-09-29T05:54:49.278Z,580
2016-09-29T05:55:50.808Z,588
2016-09-29T05:56:52.090Z,636
2016-09-29T05:57:53.689Z,660
2016-09-29T05:58:55.073Z,672
2016-09-29T05:59:56.612Z,688
2016-09-29T06:00:57.517Z,712
2016-09-29T06:01:58.234Z,736
2016-09-29T06:02:58.966Z,764
2016-09-29T06:03:59.682Z,764
2016-09-29T06:05:00.409Z,804
2016-09-29T06:06:01.135Z,744
2016-09-29T06:07:01.814Z,844
2016-09-29T06:08:02.502Z,908
2016-09-29T06:09:03.204Z,816
2016-09-29T06:10:03.902Z,984
2016-09-29T06:11:04.612Z,988
2016-09-29T06:12:05.294Z,988
2016-09-29T06:13:05.993Z,1060
2016-09-29T06:14:06.678Z,1188
2016-09-29T06:15:07.389Z,1404
2016-09-29T06:16:08.089Z,1572
2016-09-29T06:17:08.797Z,1632
2016-09-29T06:18:09.501Z,1780
2016-09-29T06:19:10.191Z,2004
2016-09-29T06:20:10.911Z,2212
2016-09-29T06:21:11.628Z,2428
2016-09-29T06:22:12.315Z,2652
2016-09-29T06:23:13.016Z,2724
2016-09-29T06:24:13.705Z,2764
2016-09-29T06:25:14.426Z,2872
2016-09-29T06:26:15.136Z,2996
2016-09-29T06:27:15.836Z,3068
2016-09-29T06:28:16.531Z,3076
2016-09-29T06:29:17.245Z,3004
2016-09-29T06:30:17.943Z,2880
2016-09-29T06:31:18.668Z,2660
2016-09-29T06:32:19.379Z,2500
2016-09-29T06:33:20.091Z,2440
2016-09-29T06:34:20.777Z,2484
2016-09-29T06:35:21.505Z,2656
2016-09-29T06:36:22.221Z,2748
2016-09-29T06:37:22.948Z,2688
2016-09-29T06:38:23.676Z,2476
2016-09-29T06:39:24.397Z,2208
2016-09-29T06:40:25.124Z,1900
2016-09-29T06:41:25.801Z,1712
2016-09-29T06:42:26.504Z,1708
2016-09-29T06:43:27.197Z,1740
2016-09-29T06:44:27.907Z,1688
2016-09-29T06:45:28.599Z,1708
2016-09-29T06:46:29.314Z,1664
2016-09-29T06:47:30.026Z,1648
2016-09-29T06:48:30.712Z,1756
2016-09-29T06:49:31.426Z,1884
2016-09-29T06:50:32.124Z,2076
2016-09-29T06:51:32.825Z,2304
2016-09-29T06:52:33.509Z,2232
2016-09-29T06:53:34.248Z,2100
2016-09-29T06:54:34.942Z,2260
2016-09-29T06:55:35.644Z,2276
2016-09-29T06:56:36.432Z,2364
2016-09-29T06:57:37.121Z,2364
2016-09-29T06:58:37.836Z,2440
2016-09-29T06:59:38.529Z,2512
2016-09-29T07:00:39.233Z,2748
2016-09-29T07:01:39.919Z,2780
2016-09-29T07:02:40.632Z,2652
2016-09-29T07:03:41.331Z,2528
2016-09-29T07:04:42.028Z,2452
2016-09-29T07:05:42.721Z,2328
2016-09-29T07:06:43.442Z,2168
2016-09-29T07:07:44.151Z,2028
2016-09-29T07:08:44.841Z,2268
2016-09-29T07:09:45.536Z,2464
2016-09-29T07:10:46.261Z,2660
2016-09-29T07:11:46.974Z,2856
2016-09-29T07:12:47.664Z,2820
2016-09-29T07:13:48.357Z,3012
2016-09-29T07:14:49.082Z,2976
2016-09-29T07:15:49.781Z,2924
2016-09-29T07:16:50.471Z,2992
2016-09-29T07:17:51.177Z,3152
2016-09-29T07:18:51.868Z,3164
2016-09-29T07:19:52.590Z,3188
2016-09-29T07:20:53.298Z,3336
2016-09-29T07:21:53.989Z,3316
2016-09-29T07:22:54.689Z,3644
2016-09-29T07:23:55.389Z,4000
2016-09-29T07:24:56.102Z,4248
2016-09-29T07:25:56.792Z,4104
2016-09-29T07:26:57.490Z,4116
2016-09-29T07:27:58.178Z,3996
2016-09-29T07:28:58.876Z,3680
2016-09-29T07:29:59.592Z,3456
2016-09-29T07:31:00.295Z,3032
2016-09-29T07:32:01.016Z,3272
2016-09-29T07:33:01.737Z,3884
2016-09-29T07:34:02.431Z,4292
2016-09-29T07:35:03.133Z,4608
2016-09-29T07:36:03.826Z,4996
2016-09-29T07:37:04.999Z,5548
2016-09-29T07:38:05.601Z,5756
2016-09-29T07:39:06.303Z,5364
2016-09-29T07:40:07.091Z,5464
2016-09-29T07:41:07.789Z,5732
2016-09-29T07:42:08.513Z,5660
2016-09-29T07:43:09.269Z,5448
2016-09-29T07:44:09.969Z,5116
2016-09-29T07:45:10.672Z,4796
2016-09-29T07:46:11.385Z,4260
2016-09-29T07:47:12.096Z,4440
2016-09-29T07:48:12.803Z,4764
2016-09-29T07:49:13.489Z,4800
2016-09-29T07:50:14.231Z,4404
2016-09-29T07:51:14.919Z,4064
2016-09-29T07:52:15.611Z,4280
2016-09-29T07:53:16.404Z,4432
2016-09-29T07:54:17.105Z,4632
2016-09-29T07:55:17.811Z,5052
2016-09-29T07:56:18.536Z,5316
2016-09-29T07:57:19.294Z,5408
2016-09-29T07:58:20.003Z,5528
2016-09-29T07:59:20.714Z,5372
2016-09-29T08:00:21.441Z,5840
2016-09-29T08:01:22.142Z,6432
2016-09-29T08:02:22.859Z,6892
2016-09-29T08:03:23.555Z,6748
2016-09-29T08:04:24.265Z,6232
2016-09-29T08:05:24.961Z,6236
2016-09-29T08:06:25.674Z,6376
2016-09-29T08:07:26.381Z,6176
2016-09-29T08:08:27.081Z,6288
2016-09-29T08:09:27.792Z,7500
2016-09-29T08:10:28.505Z,6348
2016-09-29T08:11:29.222Z,6368
2016-09-29T08:12:29.970Z,6352
2016-09-29T08:13:30.672Z,6464
2016-09-29T08:14:31.501Z,6844
2016-09-29T08:15:32.266Z,7424
2016-09-29T08:16:33.141Z,7952
2016-09-29T08:17:33.847Z,8856
2016-09-29T08:18:34.533Z,9980
2016-09-29T08:19:35.245Z,9228
2016-09-29T08:20:36.306Z,9212
2016-09-29T08:21:37.106Z,9064
2016-09-29T08:22:37.864Z,8792
2016-09-29T08:23:38.644Z,8588
2016-09-29T08:24:39.382Z,8252
2016-09-29T08:25:40.226Z,7660
2016-09-29T08:26:41.177Z,7156
2016-09-29T08:27:42.190Z,6852
2016-09-29T08:28:42.891Z,7084
2016-09-29T08:29:43.586Z,7896
2016-09-29T08:30:44.396Z,9256
2016-09-29T08:31:45.420Z,14544
2016-09-29T08:32:46.207Z,17184
2016-09-29T08:33:47.128Z,14080
2016-09-29T08:34:47.872Z,11888
2016-09-29T08:35:48.597Z,14256
2016-09-29T08:36:49.320Z,11072
2016-09-29T08:37:50.011Z,10888
2016-09-29T08:38:50.857Z,10652
2016-09-29T08:39:51.533Z,10720
2016-09-29T08:40:52.240Z,10996
2016-09-29T08:41:52.934Z,13320
2016-09-29T08:42:53.640Z,19936
2016-09-29T08:43:54.352Z,32288
2016-09-29T08:44:55.089Z,36928
2016-09-29T08:45:55.797Z,35808
2016-09-29T08:46:56.537Z,27040
2016-09-29T08:47:57.260Z,27040
2016-09-29T08:48:57.969Z,17952
2016-09-29T08:49:58.676Z,13552
2016-09-29T08:50:59.426Z,18336
2016-09-29T08:52:00.120Z,11492
2016-09-29T08:53:00.833Z,11112
2016-09-29T08:54:01.554Z,9528
2016-09-29T08:55:02.287Z,12540
2016-09-29T08:56:02.987Z,9956
2016-09-29T08:57:03.712Z,7196
2016-09-29T08:58:04.435Z,6664
2016-09-29T08:59:05.157Z,10312
2016-09-29T09:00:05.870Z,12516
2016-09-29T09:01:06.581Z,9740
2016-09-29T09:02:07.298Z,9844
2016-09-29T09:03:08.018Z,10880
2016-09-29T09:04:08.718Z,9764
2016-09-29T09:05:09.426Z,7724
2016-09-29T09:06:10.128Z,6496
2016-09-29T09:07:10.817Z,5956
2016-09-29T09:08:12.424Z,6008
2016-09-29T09:09:13.145Z,5448
2016-09-29T09:10:13.844Z,5648
2016-09-29T09:11:14.606Z,6432
2016-09-29T09:12:15.325Z,6212
2016-09-29T09:13:16.040Z,5396
2016-09-29T09:14:16.735Z,5436
2016-09-29T09:15:17.441Z,9400
2016-09-29T09:16:18.165Z,10916
2016-09-29T09:17:18.886Z,12420
2016-09-29T09:18:19.581Z,7864
2016-09-29T09:19:20.292Z,6124
2016-09-29T09:20:21.012Z,7636
2016-09-29T09:21:21.740Z,8320
2016-09-29T09:22:22.442Z,9244
2016-09-29T09:23:23.180Z,11124
2016-09-29T09:24:23.907Z,11884
2016-09-29T09:25:24.630Z,11004
2016-09-29T09:26:25.357Z,11228
2016-09-29T09:27:26.069Z,11132
2016-09-29T09:28:26.805Z,9704
2016-09-29T09:29:27.521Z,10188
2016-09-29T09:30:28.231Z,9392
2016-09-29T09:31:28.939Z,11096
2016-09-29T09:32:29.649Z,11560
2016-09-29T09:33:30.367Z,12184
2016-09-29T09:34:31.088Z,11444
2016-09-29T09:35:31.808Z,12384
2016-09-29T09:36:32.534Z,12524
2016-09-29T09:37:33.248Z,13080
2016-09-29T09:38:33.941Z,11808
2016-09-29T09:39:34.655Z,12436
2016-09-29T09:40:35.349Z,12384
2016-09-29T09:41:36.131Z,12224
2016-09-29T09:42:36.875Z,12068
2016-09-29T09:43:37.584Z,11916
2016-09-29T09:44:38.284Z,11884
2016-09-29T09:45:39.064Z,11484
2016-09-29T09:46:39.791Z,11404
2016-09-29T09:47:40.540Z,10848
2016-09-29T09:48:41.252Z,10416
2016-09-29T09:49:41.944Z,10172
2016-09-29T09:50:42.647Z,10152
2016-09-29T09:51:43.350Z,10616
2016-09-29T09:52:44.061Z,10508
2016-09-29T09:53:44.778Z,11036
2016-09-29T09:54:45.505Z,10976
2016-09-29T09:55:46.219Z,11136
2016-09-29T09:56:46.938Z,11036
2016-09-29T09:57:47.668Z,10924
2016-09-29T09:58:48.375Z,10892
2016-09-29T09:59:49.071Z,10948
2016-09-29T10:00:49.781Z,10336
2016-09-29T10:01:50.512Z,10144
2016-09-29T10:02:51.203Z,10128
2016-09-29T10:03:51.915Z,10340
2016-09-29T10:04:52.626Z,10532
2016-09-29T10:05:53.348Z,10792
2016-09-29T10:06:54.083Z,10160
2016-09-29T10:07:55.013Z,9936
2016-09-29T10:08:55.775Z,10340
2016-09-29T10:09:56.483Z,10376
2016-09-29T10:10:57.207Z,10232
2016-09-29T10:11:57.915Z,9956
2016-09-29T10:12:58.654Z,9636
2016-09-29T10:13:59.381Z,9384
2016-09-29T10:15:00.140Z,8992
2016-09-29T10:16:00.881Z,8856
2016-09-29T10:17:01.570Z,8872
2016-09-29T10:18:02.404Z,9076
2016-09-29T10:19:03.297Z,8972
2016-09-29T10:20:04.210Z,8860
2016-09-29T10:21:05.083Z,8268
2016-09-29T10:22:05.808Z,7972
2016-09-29T10:23:06.576Z,7440
2016-09-29T10:24:07.310Z,7264
2016-09-29T10:25:08.027Z,6780
2016-09-29T10:26:08.746Z,6684
2016-09-29T10:27:09.482Z,6748
2016-09-29T10:28:10.215Z,7412
2016-09-29T10:29:10.927Z,7368
2016-09-29T10:30:11.888Z,7200
2016-09-29T10:31:12.422Z,7100
2016-09-29T10:32:13.262Z,7472
2016-09-29T10:33:13.892Z,8080
2016-09-29T10:34:14.625Z,8492
2016-09-29T10:35:15.333Z,8936
2016-09-29T10:36:16.104Z,9268
2016-09-29T10:37:16.785Z,9516
2016-09-29T10:38:17.495Z,9900
2016-09-29T10:39:18.243Z,9744
2016-09-29T10:40:18.954Z,9360
2016-09-29T10:41:19.655Z,7768
2016-09-29T10:42:20.351Z,8040
2016-09-29T10:43:21.458Z,9992
2016-09-29T10:44:22.245Z,10152
2016-09-29T10:45:23.109Z,9880
2016-09-29T10:46:23.764Z,9464
2016-09-29T10:47:24.472Z,9756
2016-09-29T10:48:25.164Z,8960
2016-09-29T10:49:25.936Z,8312
2016-09-29T10:50:26.670Z,10304
2016-09-29T10:51:27.417Z,12820
2016-09-29T10:52:28.260Z,14540
2016-09-29T10:53:29.029Z,14456
2016-09-29T10:54:29.737Z,13544
2016-09-29T10:55:30.460Z,12908
2016-09-29T10:56:31.179Z,12212
2016-09-29T10:57:32.027Z,12332
2016-09-29T10:58:32.730Z,12196
2016-09-29T10:59:33.415Z,12220
2016-09-29T11:00:34.254Z,11780
2016-09-29T11:01:35.011Z,11104
2016-09-29T11:02:35.730Z,11004
2016-09-29T11:03:36.460Z,11428
2016-09-29T11:04:37.177Z,10884
2016-09-29T11:05:37.899Z,11480
2016-09-29T11:06:38.585Z,10584
2016-09-29T11:07:39.304Z,9604
2016-09-29T11:08:40.020Z,8528
2016-09-29T11:09:40.734Z,7576
2016-09-29T11:10:41.422Z,6664
2016-09-29T11:11:42.134Z,8040
2016-09-29T11:12:42.860Z,7376
2016-09-29T11:13:43.565Z,8864
2016-09-29T11:14:44.303Z,6792
2016-09-29T11:15:45.035Z,8664
2016-09-29T11:16:45.744Z,11528
2016-09-29T11:17:46.436Z,10744
2016-09-29T11:18:47.149Z,9316
2016-09-29T11:19:47.835Z,9164
2016-09-29T11:20:48.552Z,9932
2016-09-29T11:21:49.272Z,10252
2016-09-29T11:22:50.003Z,9316
2016-09-29T11:23:50.725Z,9332
2016-09-29T11:24:51.438Z,10036
2016-09-29T11:25:52.159Z,10240
2016-09-29T11:26:52.879Z,10828
2016-09-29T11:27:53.593Z,10720
2016-09-29T11:28:54.294Z,10840
2016-09-29T11:29:55.009Z,10544
2016-09-29T11:30:55.720Z,10348
2016-09-29T11:31:56.415Z,8948
2016-09-29T11:32:57.120Z,10224
2016-09-29T11:33:57.844Z,10364
2016-09-29T11:34:58.543Z,10396
2016-09-29T11:35:59.254Z,10384
2016-09-29T11:36:59.973Z,10172
2016-09-29T11:38:00.685Z,9996
2016-09-29T11:39:01.386Z,9712
2016-09-29T11:40:02.139Z,9748
2016-09-29T11:41:02.858Z,10136
2016-09-29T11:42:03.584Z,10220
2016-09-29T11:43:04.319Z,10392
2016-09-29T11:44:05.019Z,10380
2016-09-29T11:45:05.719Z,10824
2016-09-29T11:46:06.434Z,10880
2016-09-29T11:47:07.143Z,10116
2016-09-29T11:48:07.843Z,10572
2016-09-29T11:49:08.553Z,10288
2016-09-29T11:50:09.257Z,9732
2016-09-29T11:51:09.977Z,8668
2016-09-29T11:52:10.667Z,6676
2016-09-29T11:53:11.364Z,6864
2016-09-29T11:54:12.069Z,5120
2016-09-29T11:55:12.774Z,5356
2016-09-29T11:56:13.484Z,5668
2016-09-29T11:57:14.187Z,5136
2016-09-29T11:58:14.881Z,4636
2016-09-29T11:59:15.647Z,4428
2016-09-29T12:00:16.425Z,4576
2016-09-29T12:01:17.123Z,5148
2016-09-29T12:02:17.831Z,4980
2016-09-29T12:03:18.541Z,4188
2016-09-29T12:04:19.282Z,3896
2016-09-29T12:05:20.001Z,3856
2016-09-29T12:06:20.716Z,4056
2016-09-29T12:07:21.418Z,3704
2016-09-29T12:08:22.124Z,3556
2016-09-29T12:09:22.822Z,3472
2016-09-29T12:10:23.532Z,3376
2016-09-29T12:11:24.242Z,3244
2016-09-29T12:12:24.941Z,3076
2016-09-29T12:13:25.646Z,3156
2016-09-29T12:14:26.338Z,3200
2016-09-29T12:15:27.088Z,3072
2016-09-29T12:16:27.804Z,2956
2016-09-29T12:17:28.521Z,2912
2016-09-29T12:18:29.264Z,3200
2016-09-29T12:19:29.967Z,3540
2016-09-29T12:20:30.702Z,3876
2016-09-29T12:21:31.570Z,4336
2016-09-29T12:22:32.254Z,4424
2016-09-29T12:23:32.964Z,4212
2016-09-29T12:24:33.668Z,3816
2016-09-29T12:25:34.363Z,3552
2016-09-29T12:26:35.078Z,3396
2016-09-29T12:27:35.776Z,2896
2016-09-29T12:28:36.494Z,3156
2016-09-29T12:29:37.352Z,3256
2016-09-29T12:30:37.993Z,3212
2016-09-29T12:31:38.690Z,3484
2016-09-29T12:32:39.454Z,4368
2016-09-29T12:33:40.288Z,5192
2016-09-29T12:34:41.013Z,4484
2016-09-29T12:35:41.720Z,4760
2016-09-29T12:36:42.483Z,6684
2016-09-29T12:37:43.212Z,6680
2016-09-29T12:38:43.918Z,8228
2016-09-29T12:39:44.634Z,8096
2016-09-29T12:40:45.357Z,6732
2016-09-29T12:41:46.069Z,7508
2016-09-29T12:42:46.777Z,9204
2016-09-29T12:43:47.505Z,11008
2016-09-29T12:44:48.223Z,8808
2016-09-29T12:45:48.927Z,7872
2016-09-29T12:46:49.665Z,7128
2016-09-29T12:47:50.374Z,8036
2016-09-29T12:48:51.098Z,8448
2016-09-29T12:49:51.819Z,9104
2016-09-29T12:50:52.565Z,8408
2016-09-29T12:51:53.270Z,6968
2016-09-29T12:52:53.982Z,5960
2016-09-29T12:53:54.690Z,5948
2016-09-29T12:54:55.427Z,5656
2016-09-29T12:55:56.157Z,5288
2016-09-29T12:56:56.853Z,5888
2016-09-29T12:57:57.624Z,6644
2016-09-29T12:58:58.359Z,5324
2016-09-29T12:59:59.085Z,6868
2016-09-29T13:00:59.809Z,6648
2016-09-29T13:02:00.548Z,5796
2016-09-29T13:03:01.262Z,6588
2016-09-29T13:04:01.972Z,7240
2016-09-29T13:05:02.676Z,5520
2016-09-29T13:06:03.384Z,4932
2016-09-29T13:07:04.112Z,7076
2016-09-29T13:08:04.837Z,6336
2016-09-29T13:09:05.566Z,6916
2016-09-29T13:10:06.301Z,7768
2016-09-29T13:11:07.009Z,5756
2016-09-29T13:12:07.720Z,6724
2016-09-29T13:13:08.441Z,5380
2016-09-29T13:14:09.233Z,5392
2016-09-29T13:15:09.943Z,4648
2016-09-29T13:16:10.654Z,4988
2016-09-29T13:17:11.360Z,7020
2016-09-29T13:18:12.060Z,6276
2016-09-29T13:19:12.763Z,5844
2016-09-29T13:20:13.476Z,5616
2016-09-29T13:21:14.165Z,5560
2016-09-29T13:22:14.863Z,5684
2016-09-29T13:23:15.629Z,5848
2016-09-29T13:24:16.366Z,5500
2016-09-29T13:25:17.075Z,5540
2016-09-29T13:26:17.967Z,5712
2016-09-29T13:27:18.497Z,5716
2016-09-29T13:28:19.192Z,5324
2016-09-29T13:29:19.901Z,5568
2016-09-29T13:30:20.603Z,6136
2016-09-29T13:31:21.515Z,5800
2016-09-29T13:32:22.217Z,6400
2016-09-29T13:33:22.910Z,6440
2016-09-29T13:34:23.603Z,7304
2016-09-29T13:35:24.315Z,5908
2016-09-29T13:36:25.233Z,6132
2016-09-29T13:37:25.950Z,5396
2016-09-29T13:38:26.708Z,5476
2016-09-29T13:39:27.387Z,4964
2016-09-29T13:40:28.100Z,4832
2016-09-29T13:41:28.803Z,4992
2016-09-29T13:42:29.518Z,5108
2016-09-29T13:43:30.269Z,5276
2016-09-29T13:44:30.972Z,5412
2016-09-29T13:45:31.670Z,5356
2016-09-29T13:46:32.406Z,6296
2016-09-29T13:47:33.170Z,6248
2016-09-29T13:48:33.888Z,5432
2016-09-29T13:49:34.933Z,4884
2016-09-29T13:50:35.608Z,4680
2016-09-29T13:51:36.305Z,4552
2016-09-29T13:52:37.035Z,4472
2016-09-29T13:53:37.749Z,3648
2016-09-29T13:54:38.457Z,3108
2016-09-29T13:55:39.208Z,2360
2016-09-29T13:56:39.898Z,2404
2016-09-29T13:57:40.605Z,2504